sensor_id;sensor_type;location;lat;lon;timestamp;P1;durP1;ratioP1;P2;durP2;ratioP2
73023;SDS011;61199;47.526;8.538;2023-02-10T00:01:51;50.40;;;21.40;;
73023;SDS011;61199;47.526;8.538;2023-02-10T00:04:17;42.67;;;20.07;;
73023;SDS011;61199;47.526;8.538;2023-02-10T00:06:43;48.77;;;22.17;;
73023;SDS011;61199;47.526;8.538;2023-02-10T00:09:11;46.30;;;20.10;;
73023;SDS011;61199;47.526;8.538;2023-02-10T00:11:41;56.00;;;22.27;;
73023;SDS011;61199;47.526;8.538;2023-02-10T00:14:25;46.17;;;21.10;;
73023;SDS011;61199;47.526;8.538;2023-02-10T00:16:52;50.03;;;21.50;;
73023;SDS011;61199;47.526;8.538;2023-02-10T00:19:19;44.57;;;21.40;;
73023;SDS011;61199;47.526;8.538;2023-02-10T00:21:47;39.97;;;20.30;;
73023;SDS011;61199;47.526;8.538;2023-02-10T00:24:14;49.73;;;21.30;;
73023;SDS011;61199;47.526;8.538;2023-02-10T00:26:40;45.40;;;20.63;;
73023;SDS011;61199;47.526;8.538;2023-02-10T00:29:07;43.57;;;19.80;;
73023;SDS011;61199;47.526;8.538;2023-02-10T00:31:33;46.10;;;21.30;;
73023;SDS011;61199;47.526;8.538;2023-02-10T00:34:00;47.20;;;21.17;;
73023;SDS011;61199;47.526;8.538;2023-02-10T00:36:26;44.23;;;20.37;;
73023;SDS011;61199;47.526;8.538;2023-02-10T00:38:53;55.80;;;21.23;;
73023;SDS011;61199;47.526;8.538;2023-02-10T00:41:20;46.43;;;19.93;;
73023;SDS011;61199;47.526;8.538;2023-02-10T00:43:49;50.73;;;22.60;;
73023;SDS011;61199;47.526;8.538;2023-02-10T00:46:17;42.20;;;20.13;;
73023;SDS011;61199;47.526;8.538;2023-02-10T00:48:46;55.17;;;22.13;;
73023;SDS011;61199;47.526;8.538;2023-02-10T00:51:12;45.97;;;22.27;;
73023;SDS011;61199;47.526;8.538;2023-02-10T00:53:40;42.80;;;20.40;;
73023;SDS011;61199;47.526;8.538;2023-02-10T00:56:06;52.50;;;22.33;;
73023;SDS011;61199;47.526;8.538;2023-02-10T00:58:33;43.57;;;20.47;;
73023;SDS011;61199;47.526;8.538;2023-02-10T01:00:59;47.07;;;21.53;;
73023;SDS011;61199;47.526;8.538;2023-02-10T01:03:26;57.23;;;21.10;;
73023;SDS011;61199;47.526;8.538;2023-02-10T01:05:52;45.63;;;21.40;;
73023;SDS011;61199;47.526;8.538;2023-02-10T01:08:19;57.00;;;22.17;;
73023;SDS011;61199;47.526;8.538;2023-02-10T01:10:45;46.03;;;19.90;;
73023;SDS011;61199;47.526;8.538;2023-02-10T01:13:13;48.17;;;21.50;;
73023;SDS011;61199;47.526;8.538;2023-02-10T01:15:41;51.23;;;20.93;;
73023;SDS011;61199;47.526;8.538;2023-02-10T01:18:12;44.87;;;20.70;;
73023;SDS011;61199;47.526;8.538;2023-02-10T01:20:39;42.70;;;20.20;;
73023;SDS011;61199;47.526;8.538;2023-02-10T01:23:07;41.40;;;20.50;;
73023;SDS011;61199;47.526;8.538;2023-02-10T01:25:34;48.90;;;20.53;;
73023;SDS011;61199;47.526;8.538;2023-02-10T01:28:02;46.27;;;20.93;;
73023;SDS011;61199;47.526;8.538;2023-02-10T01:30:29;39.73;;;19.40;;
73023;SDS011;61199;47.526;8.538;2023-02-10T01:32:56;44.10;;;19.87;;
73023;SDS011;61199;47.526;8.538;2023-02-10T01:35:22;44.23;;;20.40;;
73023;SDS011;61199;47.526;8.538;2023-02-10T01:37:49;40.57;;;19.73;;
73023;SDS011;61199;47.526;8.538;2023-02-10T01:40:15;43.33;;;18.50;;
73023;SDS011;61199;47.526;8.538;2023-02-10T01:42:42;42.00;;;19.27;;
73023;SDS011;61199;47.526;8.538;2023-02-10T01:45:13;43.47;;;20.07;;
73023;SDS011;61199;47.526;8.538;2023-02-10T01:48:03;46.10;;;20.23;;
73023;SDS011;61199;47.526;8.538;2023-02-10T01:50:31;42.57;;;21.00;;
73023;SDS011;61199;47.526;8.538;2023-02-10T01:53:03;41.70;;;19.63;;
73023;SDS011;61199;47.526;8.538;2023-02-10T01:55:32;44.53;;;20.00;;
73023;SDS011;61199;47.526;8.538;2023-02-10T01:58:01;44.90;;;20.73;;
73023;SDS011;61199;47.526;8.538;2023-02-10T02:00:30;45.00;;;19.27;;
73023;SDS011;61199;47.526;8.538;2023-02-10T02:02:56;43.13;;;19.60;;
73023;SDS011;61199;47.526;8.538;2023-02-10T02:05:28;42.70;;;20.33;;
73023;SDS011;61199;47.526;8.538;2023-02-10T02:08:09;43.30;;;19.23;;
73023;SDS011;61199;47.526;8.538;2023-02-10T02:13:47;43.97;;;19.03;;
73023;SDS011;61199;47.526;8.538;2023-02-10T02:22:10;48.90;;;20.90;;
73023;SDS011;61199;47.526;8.538;2023-02-10T02:33:21;55.87;;;21.33;;
73023;SDS011;61199;47.526;8.538;2023-02-10T02:35:57;46.63;;;20.43;;
73023;SDS011;61199;47.526;8.538;2023-02-10T02:38:27;50.23;;;20.80;;
73023;SDS011;61199;47.526;8.538;2023-02-10T02:40:54;41.87;;;20.30;;
73023;SDS011;61199;47.526;8.538;2023-02-10T02:43:21;40.67;;;19.30;;
73023;SDS011;61199;47.526;8.538;2023-02-10T02:56:46;53.63;;;20.40;;
73023;SDS011;61199;47.526;8.538;2023-02-10T03:01:55;45.50;;;19.10;;
73023;SDS011;61199;47.526;8.538;2023-02-10T03:04:30;42.30;;;18.90;;
73023;SDS011;61199;47.526;8.538;2023-02-10T03:06:58;41.93;;;19.23;;
73023;SDS011;61199;47.526;8.538;2023-02-10T03:09:25;48.40;;;19.03;;
73023;SDS011;61199;47.526;8.538;2023-02-10T03:11:53;36.13;;;17.13;;
73023;SDS011;61199;47.526;8.538;2023-02-10T03:14:19;48.63;;;18.60;;
73023;SDS011;61199;47.526;8.538;2023-02-10T03:16:46;38.37;;;17.17;;
73023;SDS011;61199;47.526;8.538;2023-02-10T03:19:12;41.87;;;18.23;;
73023;SDS011;61199;47.526;8.538;2023-02-10T03:21:39;36.63;;;18.30;;
73023;SDS011;61199;47.526;8.538;2023-02-10T03:24:05;36.73;;;18.23;;
73023;SDS011;61199;47.526;8.538;2023-02-10T03:26:31;43.40;;;19.00;;
73023;SDS011;61199;47.526;8.538;2023-02-10T03:28:58;41.13;;;17.93;;
73023;SDS011;61199;47.526;8.538;2023-02-10T03:31:24;39.50;;;18.30;;
73023;SDS011;61199;47.526;8.538;2023-02-10T03:33:51;38.90;;;18.97;;
73023;SDS011;61199;47.526;8.538;2023-02-10T03:36:17;37.13;;;17.70;;
73023;SDS011;61199;47.526;8.538;2023-02-10T03:38:44;45.23;;;18.20;;
73023;SDS011;61199;47.526;8.538;2023-02-10T03:41:11;40.87;;;18.47;;
73023;SDS011;61199;47.526;8.538;2023-02-10T03:43:39;32.80;;;16.73;;
73023;SDS011;61199;47.526;8.538;2023-02-10T03:46:08;42.97;;;18.23;;
73023;SDS011;61199;47.526;8.538;2023-02-10T03:48:36;39.73;;;17.60;;
73023;SDS011;61199;47.526;8.538;2023-02-10T03:51:04;39.53;;;18.60;;
73023;SDS011;61199;47.526;8.538;2023-02-10T03:53:31;43.50;;;18.30;;
73023;SDS011;61199;47.526;8.538;2023-02-10T03:55:58;43.30;;;18.57;;
73023;SDS011;61199;47.526;8.538;2023-02-10T03:58:25;34.70;;;17.17;;
73023;SDS011;61199;47.526;8.538;2023-02-10T04:00:52;36.53;;;17.57;;
73023;SDS011;61199;47.526;8.538;2023-02-10T04:03:19;36.83;;;17.30;;
73023;SDS011;61199;47.526;8.538;2023-02-10T04:05:45;41.63;;;18.50;;
73023;SDS011;61199;47.526;8.538;2023-02-10T04:08:13;36.83;;;17.13;;
73023;SDS011;61199;47.526;8.538;2023-02-10T04:10:39;35.07;;;16.97;;
73023;SDS011;61199;47.526;8.538;2023-02-10T04:13:05;36.00;;;17.50;;
73023;SDS011;61199;47.526;8.538;2023-02-10T04:15:32;34.40;;;16.60;;
73023;SDS011;61199;47.526;8.538;2023-02-10T04:17:58;41.20;;;18.33;;
73023;SDS011;61199;47.526;8.538;2023-02-10T04:20:25;40.07;;;17.07;;
73023;SDS011;61199;47.526;8.538;2023-02-10T04:22:51;35.93;;;17.30;;
73023;SDS011;61199;47.526;8.538;2023-02-10T04:25:18;41.30;;;18.53;;
73023;SDS011;61199;47.526;8.538;2023-02-10T04:27:45;38.77;;;17.93;;
73023;SDS011;61199;47.526;8.538;2023-02-10T04:30:12;38.50;;;17.10;;
73023;SDS011;61199;47.526;8.538;2023-02-10T04:32:38;39.53;;;17.87;;
73023;SDS011;61199;47.526;8.538;2023-02-10T04:35:05;37.60;;;17.83;;
73023;SDS011;61199;47.526;8.538;2023-02-10T04:37:31;39.37;;;17.23;;
73023;SDS011;61199;47.526;8.538;2023-02-10T04:39:58;39.80;;;17.00;;
73023;SDS011;61199;47.526;8.538;2023-02-10T04:42:24;37.80;;;17.97;;
73023;SDS011;61199;47.526;8.538;2023-02-10T04:44:56;62.07;;;17.40;;
73023;SDS011;61199;47.526;8.538;2023-02-10T04:47:24;42.73;;;18.67;;
73023;SDS011;61199;47.526;8.538;2023-02-10T04:49:51;38.17;;;17.60;;
73023;SDS011;61199;47.526;8.538;2023-02-10T04:52:18;47.63;;;20.23;;
73023;SDS011;61199;47.526;8.538;2023-02-10T04:54:45;42.20;;;17.63;;
73023;SDS011;61199;47.526;8.538;2023-02-10T04:57:12;41.40;;;17.33;;
73023;SDS011;61199;47.526;8.538;2023-02-10T04:59:38;36.10;;;16.60;;
73023;SDS011;61199;47.526;8.538;2023-02-10T05:02:05;49.57;;;17.20;;
73023;SDS011;61199;47.526;8.538;2023-02-10T05:04:31;39.17;;;17.20;;
73023;SDS011;61199;47.526;8.538;2023-02-10T05:06:57;38.77;;;18.40;;
73023;SDS011;61199;47.526;8.538;2023-02-10T05:09:24;41.87;;;18.67;;
73023;SDS011;61199;47.526;8.538;2023-02-10T05:11:53;36.27;;;17.70;;
73023;SDS011;61199;47.526;8.538;2023-02-10T05:14:19;33.87;;;17.13;;
73023;SDS011;61199;47.526;8.538;2023-02-10T05:16:46;38.67;;;16.87;;
73023;SDS011;61199;47.526;8.538;2023-02-10T05:19:12;38.73;;;18.60;;
73023;SDS011;61199;47.526;8.538;2023-02-10T05:21:39;38.97;;;18.37;;
73023;SDS011;61199;47.526;8.538;2023-02-10T05:24:05;42.13;;;18.67;;
73023;SDS011;61199;47.526;8.538;2023-02-10T05:26:32;46.83;;;18.17;;
73023;SDS011;61199;47.526;8.538;2023-02-10T05:28:58;35.77;;;17.77;;
73023;SDS011;61199;47.526;8.538;2023-02-10T05:31:24;43.77;;;19.23;;
73023;SDS011;61199;47.526;8.538;2023-02-10T05:33:51;44.47;;;19.17;;
73023;SDS011;61199;47.526;8.538;2023-02-10T05:36:19;40.33;;;17.77;;
73023;SDS011;61199;47.526;8.538;2023-02-10T05:38:46;55.83;;;19.00;;
73023;SDS011;61199;47.526;8.538;2023-02-10T05:41:31;38.60;;;18.60;;
73023;SDS011;61199;47.526;8.538;2023-02-10T05:44:00;45.40;;;19.47;;
73023;SDS011;61199;47.526;8.538;2023-02-10T05:46:27;45.73;;;19.77;;
73023;SDS011;61199;47.526;8.538;2023-02-10T05:48:53;48.13;;;19.30;;
73023;SDS011;61199;47.526;8.538;2023-02-10T05:51:20;40.90;;;18.37;;
73023;SDS011;61199;47.526;8.538;2023-02-10T05:53:46;40.53;;;17.87;;
73023;SDS011;61199;47.526;8.538;2023-02-10T05:56:13;39.07;;;17.63;;
73023;SDS011;61199;47.526;8.538;2023-02-10T05:58:39;36.63;;;16.90;;
73023;SDS011;61199;47.526;8.538;2023-02-10T06:01:06;38.37;;;17.53;;
73023;SDS011;61199;47.526;8.538;2023-02-10T06:03:33;37.60;;;18.00;;
73023;SDS011;61199;47.526;8.538;2023-02-10T06:06:00;47.03;;;19.03;;
73023;SDS011;61199;47.526;8.538;2023-02-10T06:08:26;48.07;;;17.60;;
73023;SDS011;61199;47.526;8.538;2023-02-10T06:10:53;44.60;;;20.50;;
73023;SDS011;61199;47.526;8.538;2023-02-10T06:13:19;37.10;;;17.73;;
73023;SDS011;61199;47.526;8.538;2023-02-10T06:15:46;34.63;;;16.67;;
73023;SDS011;61199;47.526;8.538;2023-02-10T06:18:13;34.87;;;16.70;;
73023;SDS011;61199;47.526;8.538;2023-02-10T06:20:40;36.20;;;18.33;;
73023;SDS011;61199;47.526;8.538;2023-02-10T06:23:06;37.97;;;18.23;;
73023;SDS011;61199;47.526;8.538;2023-02-10T06:25:33;42.47;;;17.63;;
73023;SDS011;61199;47.526;8.538;2023-02-10T06:28:01;48.10;;;19.53;;
73023;SDS011;61199;47.526;8.538;2023-02-10T06:30:28;46.43;;;21.03;;
73023;SDS011;61199;47.526;8.538;2023-02-10T06:32:54;54.03;;;22.60;;
73023;SDS011;61199;47.526;8.538;2023-02-10T06:35:21;51.73;;;24.07;;
73023;SDS011;61199;47.526;8.538;2023-02-10T06:37:47;56.63;;;22.87;;
73023;SDS011;61199;47.526;8.538;2023-02-10T06:40:14;51.30;;;22.83;;
73023;SDS011;61199;47.526;8.538;2023-02-10T06:42:41;63.40;;;24.30;;
73023;SDS011;61199;47.526;8.538;2023-02-10T06:45:07;62.53;;;24.53;;
73023;SDS011;61199;47.526;8.538;2023-02-10T06:47:35;63.13;;;24.90;;
73023;SDS011;61199;47.526;8.538;2023-02-10T06:50:02;53.80;;;23.30;;
73023;SDS011;61199;47.526;8.538;2023-02-10T06:52:29;52.33;;;22.07;;
73023;SDS011;61199;47.526;8.538;2023-02-10T06:54:57;53.80;;;23.27;;
73023;SDS011;61199;47.526;8.538;2023-02-10T06:57:24;55.03;;;23.00;;
73023;SDS011;61199;47.526;8.538;2023-02-10T06:59:52;52.20;;;23.30;;
73023;SDS011;61199;47.526;8.538;2023-02-10T07:02:19;49.57;;;20.73;;
73023;SDS011;61199;47.526;8.538;2023-02-10T07:04:45;52.70;;;24.00;;
73023;SDS011;61199;47.526;8.538;2023-02-10T07:07:11;44.43;;;21.00;;
73023;SDS011;61199;47.526;8.538;2023-02-10T07:09:38;45.07;;;20.47;;
73023;SDS011;61199;47.526;8.538;2023-02-10T07:12:04;47.57;;;20.97;;
73023;SDS011;61199;47.526;8.538;2023-02-10T07:14:31;44.90;;;20.27;;
73023;SDS011;61199;47.526;8.538;2023-02-10T07:16:57;45.23;;;20.20;;
73023;SDS011;61199;47.526;8.538;2023-02-10T07:19:23;55.57;;;21.50;;
73023;SDS011;61199;47.526;8.538;2023-02-10T07:21:50;49.10;;;21.07;;
73023;SDS011;61199;47.526;8.538;2023-02-10T07:24:16;49.40;;;20.63;;
73023;SDS011;61199;47.526;8.538;2023-02-10T07:26:43;46.73;;;20.80;;
73023;SDS011;61199;47.526;8.538;2023-02-10T07:29:10;50.07;;;22.20;;
73023;SDS011;61199;47.526;8.538;2023-02-10T07:31:36;49.17;;;23.73;;
73023;SDS011;61199;47.526;8.538;2023-02-10T07:34:03;49.13;;;23.07;;
73023;SDS011;61199;47.526;8.538;2023-02-10T07:36:29;51.90;;;23.07;;
73023;SDS011;61199;47.526;8.538;2023-02-10T07:38:56;48.03;;;21.50;;
73023;SDS011;61199;47.526;8.538;2023-02-10T07:41:22;53.23;;;24.00;;
73023;SDS011;61199;47.526;8.538;2023-02-10T07:43:48;59.80;;;22.80;;
73023;SDS011;61199;47.526;8.538;2023-02-10T07:46:15;61.13;;;23.47;;
73023;SDS011;61199;47.526;8.538;2023-02-10T07:48:41;59.57;;;23.50;;
73023;SDS011;61199;47.526;8.538;2023-02-10T07:51:08;65.80;;;26.37;;
73023;SDS011;61199;47.526;8.538;2023-02-10T07:53:34;52.53;;;22.87;;
73023;SDS011;61199;47.526;8.538;2023-02-10T07:56:03;59.60;;;24.30;;
73023;SDS011;61199;47.526;8.538;2023-02-10T07:58:30;55.50;;;24.87;;
73023;SDS011;61199;47.526;8.538;2023-02-10T08:00:57;59.00;;;24.63;;
73023;SDS011;61199;47.526;8.538;2023-02-10T08:03:23;54.40;;;24.23;;
73023;SDS011;61199;47.526;8.538;2023-02-10T08:05:49;52.83;;;21.47;;
73023;SDS011;61199;47.526;8.538;2023-02-10T08:08:16;49.30;;;21.70;;
73023;SDS011;61199;47.526;8.538;2023-02-10T08:10:42;47.53;;;21.80;;
73023;SDS011;61199;47.526;8.538;2023-02-10T08:13:09;63.23;;;23.20;;
73023;SDS011;61199;47.526;8.538;2023-02-10T08:15:35;58.03;;;23.17;;
73023;SDS011;61199;47.526;8.538;2023-02-10T08:18:02;55.40;;;22.47;;
73023;SDS011;61199;47.526;8.538;2023-02-10T08:20:28;45.53;;;21.90;;
73023;SDS011;61199;47.526;8.538;2023-02-10T08:22:55;55.33;;;23.77;;
73023;SDS011;61199;47.526;8.538;2023-02-10T08:25:23;46.10;;;21.53;;
73023;SDS011;61199;47.526;8.538;2023-02-10T08:27:49;47.03;;;21.53;;
73023;SDS011;61199;47.526;8.538;2023-02-10T08:30:16;59.40;;;22.20;;
73023;SDS011;61199;47.526;8.538;2023-02-10T08:32:43;47.50;;;23.77;;
73023;SDS011;61199;47.526;8.538;2023-02-10T08:35:09;49.53;;;22.67;;
73023;SDS011;61199;47.526;8.538;2023-02-10T08:37:36;48.77;;;21.20;;
73023;SDS011;61199;47.526;8.538;2023-02-10T08:40:02;65.00;;;24.40;;
73023;SDS011;61199;47.526;8.538;2023-02-10T08:42:32;59.93;;;24.10;;
73023;SDS011;61199;47.526;8.538;2023-02-10T08:44:59;59.60;;;25.47;;
73023;SDS011;61199;47.526;8.538;2023-02-10T08:47:26;57.10;;;23.93;;
73023;SDS011;61199;47.526;8.538;2023-02-10T08:49:52;65.10;;;26.17;;
73023;SDS011;61199;47.526;8.538;2023-02-10T08:52:18;60.53;;;27.77;;
73023;SDS011;61199;47.526;8.538;2023-02-10T08:54:47;64.37;;;26.60;;
73023;SDS011;61199;47.526;8.538;2023-02-10T08:57:14;56.77;;;25.57;;
73023;SDS011;61199;47.526;8.538;2023-02-10T08:59:41;54.87;;;25.90;;
73023;SDS011;61199;47.526;8.538;2023-02-10T09:02:09;53.47;;;23.40;;
73023;SDS011;61199;47.526;8.538;2023-02-10T09:04:36;56.47;;;26.67;;
73023;SDS011;61199;47.526;8.538;2023-02-10T09:07:03;58.33;;;25.27;;
73023;SDS011;61199;47.526;8.538;2023-02-10T09:09:29;51.13;;;25.27;;
73023;SDS011;61199;47.526;8.538;2023-02-10T09:11:56;68.20;;;26.23;;
73023;SDS011;61199;47.526;8.538;2023-02-10T09:14:22;58.57;;;25.20;;
73023;SDS011;61199;47.526;8.538;2023-02-10T09:16:49;61.80;;;27.43;;
73023;SDS011;61199;47.526;8.538;2023-02-10T09:19:17;55.40;;;25.97;;
73023;SDS011;61199;47.526;8.538;2023-02-10T09:21:46;53.40;;;24.30;;
73023;SDS011;61199;47.526;8.538;2023-02-10T09:24:13;57.33;;;25.60;;
73023;SDS011;61199;47.526;8.538;2023-02-10T09:26:40;59.43;;;24.37;;
73023;SDS011;61199;47.526;8.538;2023-02-10T09:29:07;53.13;;;24.87;;
73023;SDS011;61199;47.526;8.538;2023-02-10T09:31:34;54.47;;;23.10;;
73023;SDS011;61199;47.526;8.538;2023-02-10T09:34:01;51.03;;;22.73;;
73023;SDS011;61199;47.526;8.538;2023-02-10T09:36:27;54.57;;;24.40;;
73023;SDS011;61199;47.526;8.538;2023-02-10T09:38:54;44.30;;;21.67;;
73023;SDS011;61199;47.526;8.538;2023-02-10T09:41:31;47.67;;;22.30;;
73023;SDS011;61199;47.526;8.538;2023-02-10T09:46:38;49.80;;;23.80;;
73023;SDS011;61199;47.526;8.538;2023-02-10T09:49:42;47.50;;;21.87;;
73023;SDS011;61199;47.526;8.538;2023-02-10T09:52:33;41.17;;;20.33;;
73023;SDS011;61199;47.526;8.538;2023-02-10T09:55:32;43.23;;;19.90;;
73023;SDS011;61199;47.526;8.538;2023-02-10T10:01:18;41.77;;;19.77;;
73023;SDS011;61199;47.526;8.538;2023-02-10T10:03:57;41.97;;;19.50;;
73023;SDS011;61199;47.526;8.538;2023-02-10T10:06:28;41.80;;;19.33;;
73023;SDS011;61199;47.526;8.538;2023-02-10T10:16:51;43.50;;;20.43;;
73023;SDS011;61199;47.526;8.538;2023-02-10T10:19:31;37.57;;;19.13;;
73023;SDS011;61199;47.526;8.538;2023-02-10T10:22:24;44.20;;;19.67;;
73023;SDS011;61199;47.526;8.538;2023-02-10T10:30:31;36.43;;;17.40;;
73023;SDS011;61199;47.526;8.538;2023-02-10T10:33:51;43.03;;;18.73;;
73023;SDS011;61199;47.526;8.538;2023-02-10T10:36:18;33.23;;;17.90;;
73023;SDS011;61199;47.526;8.538;2023-02-10T10:38:52;41.30;;;18.53;;
73023;SDS011;61199;47.526;8.538;2023-02-10T10:41:22;41.53;;;18.50;;
73023;SDS011;61199;47.526;8.538;2023-02-10T10:43:53;38.03;;;18.20;;
73023;SDS011;61199;47.526;8.538;2023-02-10T10:46:28;38.67;;;19.20;;
73023;SDS011;61199;47.526;8.538;2023-02-10T10:49:00;38.83;;;19.40;;
73023;SDS011;61199;47.526;8.538;2023-02-10T10:51:26;35.93;;;19.63;;
73023;SDS011;61199;47.526;8.538;2023-02-10T10:53:54;41.67;;;19.90;;
73023;SDS011;61199;47.526;8.538;2023-02-10T10:56:26;37.40;;;18.23;;
73023;SDS011;61199;47.526;8.538;2023-02-10T10:58:58;35.93;;;16.60;;
73023;SDS011;61199;47.526;8.538;2023-02-10T11:01:31;43.77;;;19.60;;
73023;SDS011;61199;47.526;8.538;2023-02-10T11:04:02;43.10;;;17.77;;
73023;SDS011;61199;47.526;8.538;2023-02-10T11:06:40;38.70;;;17.27;;
73023;SDS011;61199;47.526;8.538;2023-02-10T11:09:47;31.53;;;17.40;;
73023;SDS011;61199;47.526;8.538;2023-02-10T11:12:06;35.60;;;17.30;;
73023;SDS011;61199;47.526;8.538;2023-02-10T11:14:45;32.43;;;16.93;;
73023;SDS011;61199;47.526;8.538;2023-02-10T11:17:23;42.73;;;16.87;;
73023;SDS011;61199;47.526;8.538;2023-02-10T11:19:56;41.73;;;17.50;;
73023;SDS011;61199;47.526;8.538;2023-02-10T11:22:26;31.07;;;16.40;;
73023;SDS011;61199;47.526;8.538;2023-02-10T11:24:54;32.73;;;17.37;;
73023;SDS011;61199;47.526;8.538;2023-02-10T11:27:23;31.90;;;16.50;;
73023;SDS011;61199;47.526;8.538;2023-02-10T11:29:51;32.37;;;17.20;;
73023;SDS011;61199;47.526;8.538;2023-02-10T11:32:20;29.93;;;16.27;;
73023;SDS011;61199;47.526;8.538;2023-02-10T11:34:50;31.43;;;17.10;;
73023;SDS011;61199;47.526;8.538;2023-02-10T11:39:54;36.63;;;17.30;;
73023;SDS011;61199;47.526;8.538;2023-02-10T11:42:23;35.87;;;15.47;;
73023;SDS011;61199;47.526;8.538;2023-02-10T11:45:00;27.37;;;15.27;;
73023;SDS011;61199;47.526;8.538;2023-02-10T11:47:46;30.63;;;16.00;;
73023;SDS011;61199;47.526;8.538;2023-02-10T11:50:47;35.00;;;17.20;;
73023;SDS011;61199;47.526;8.538;2023-02-10T11:53:08;34.73;;;16.00;;
73023;SDS011;61199;47.526;8.538;2023-02-10T11:55:46;25.03;;;15.00;;
73023;SDS011;61199;47.526;8.538;2023-02-10T12:07:20;23.40;;;12.67;;
73023;SDS011;61199;47.526;8.538;2023-02-10T12:09:52;29.53;;;14.73;;
73023;SDS011;61199;47.526;8.538;2023-02-10T12:12:36;24.77;;;13.87;;
73023;SDS011;61199;47.526;8.538;2023-02-10T12:15:25;25.30;;;13.43;;
73023;SDS011;61199;47.526;8.538;2023-02-10T12:23:30;31.57;;;16.13;;
73023;SDS011;61199;47.526;8.538;2023-02-10T12:26:05;32.07;;;15.20;;
73023;SDS011;61199;47.526;8.538;2023-02-10T12:28:48;26.87;;;15.60;;
73023;SDS011;61199;47.526;8.538;2023-02-10T12:45:20;34.60;;;16.17;;
73023;SDS011;61199;47.526;8.538;2023-02-10T12:48:01;34.73;;;18.03;;
73023;SDS011;61199;47.526;8.538;2023-02-10T12:53:29;30.53;;;17.30;;
73023;SDS011;61199;47.526;8.538;2023-02-10T12:56:05;29.27;;;16.40;;
73023;SDS011;61199;47.526;8.538;2023-02-10T12:58:39;31.73;;;17.10;;
73023;SDS011;61199;47.526;8.538;2023-02-10T13:01:13;34.33;;;17.10;;
73023;SDS011;61199;47.526;8.538;2023-02-10T13:03:46;38.90;;;17.03;;
73023;SDS011;61199;47.526;8.538;2023-02-10T13:06:29;30.30;;;17.20;;
73023;SDS011;61199;47.526;8.538;2023-02-10T13:11:31;32.20;;;17.10;;
73023;SDS011;61199;47.526;8.538;2023-02-10T13:14:04;30.57;;;17.27;;
73023;SDS011;61199;47.526;8.538;2023-02-10T13:16:35;30.57;;;17.07;;
73023;SDS011;61199;47.526;8.538;2023-02-10T13:19:14;29.33;;;16.93;;
73023;SDS011;61199;47.526;8.538;2023-02-10T13:21:53;35.17;;;17.97;;
73023;SDS011;61199;47.526;8.538;2023-02-10T13:24:30;36.43;;;17.30;;
73023;SDS011;61199;47.526;8.538;2023-02-10T13:30:09;31.23;;;17.37;;
73023;SDS011;61199;47.526;8.538;2023-02-10T13:33:15;26.93;;;15.67;;
73023;SDS011;61199;47.526;8.538;2023-02-10T13:35:44;27.10;;;16.57;;
73023;SDS011;61199;47.526;8.538;2023-02-10T13:38:15;30.23;;;16.50;;
73023;SDS011;61199;47.526;8.538;2023-02-10T13:40:51;24.23;;;15.00;;
73023;SDS011;61199;47.526;8.538;2023-02-10T13:43:27;26.67;;;15.17;;
73023;SDS011;61199;47.526;8.538;2023-02-10T13:46:00;25.63;;;15.73;;
73023;SDS011;61199;47.526;8.538;2023-02-10T13:48:31;24.40;;;15.17;;
73023;SDS011;61199;47.526;8.538;2023-02-10T13:51:04;27.60;;;16.40;;
73023;SDS011;61199;47.526;8.538;2023-02-10T13:58:49;27.20;;;15.30;;
73023;SDS011;61199;47.526;8.538;2023-02-10T14:01:40;26.20;;;15.03;;
73023;SDS011;61199;47.526;8.538;2023-02-10T14:06:48;34.53;;;16.53;;
73023;SDS011;61199;47.526;8.538;2023-02-10T14:09:20;27.83;;;16.03;;
73023;SDS011;61199;47.526;8.538;2023-02-10T14:12:00;25.10;;;15.20;;
73023;SDS011;61199;47.526;8.538;2023-02-10T14:14:31;28.13;;;14.43;;
73023;SDS011;61199;47.526;8.538;2023-02-10T14:17:02;25.03;;;13.80;;
73023;SDS011;61199;47.526;8.538;2023-02-10T14:19:37;26.40;;;15.23;;
73023;SDS011;61199;47.526;8.538;2023-02-10T14:22:06;21.67;;;14.27;;
73023;SDS011;61199;47.526;8.538;2023-02-10T14:24:46;29.40;;;15.33;;
73023;SDS011;61199;47.526;8.538;2023-02-10T14:27:17;27.43;;;15.30;;
73023;SDS011;61199;47.526;8.538;2023-02-10T14:29:50;30.23;;;17.67;;
73023;SDS011;61199;47.526;8.538;2023-02-10T14:32:18;32.03;;;16.70;;
73023;SDS011;61199;47.526;8.538;2023-02-10T14:35:02;28.13;;;16.40;;
73023;SDS011;61199;47.526;8.538;2023-02-10T14:37:47;29.20;;;16.20;;
73023;SDS011;61199;47.526;8.538;2023-02-10T14:40:18;23.27;;;14.27;;
73023;SDS011;61199;47.526;8.538;2023-02-10T14:42:46;31.70;;;15.70;;
73023;SDS011;61199;47.526;8.538;2023-02-10T14:45:21;27.43;;;15.30;;
73023;SDS011;61199;47.526;8.538;2023-02-10T14:47:53;28.83;;;16.10;;
73023;SDS011;61199;47.526;8.538;2023-02-10T14:50:33;27.67;;;15.70;;
73023;SDS011;61199;47.526;8.538;2023-02-10T14:53:02;25.53;;;15.37;;
73023;SDS011;61199;47.526;8.538;2023-02-10T14:55:31;27.83;;;15.60;;
73023;SDS011;61199;47.526;8.538;2023-02-10T14:58:10;31.00;;;15.30;;
73023;SDS011;61199;47.526;8.538;2023-02-10T15:00:54;22.93;;;13.47;;
73023;SDS011;61199;47.526;8.538;2023-02-10T15:03:24;24.83;;;13.43;;
73023;SDS011;61199;47.526;8.538;2023-02-10T15:05:52;28.77;;;14.43;;
73023;SDS011;61199;47.526;8.538;2023-02-10T15:08:24;22.00;;;13.37;;
73023;SDS011;61199;47.526;8.538;2023-02-10T15:10:58;26.33;;;14.17;;
73023;SDS011;61199;47.526;8.538;2023-02-10T15:13:34;25.33;;;14.10;;
73023;SDS011;61199;47.526;8.538;2023-02-10T15:16:04;25.27;;;13.83;;
73023;SDS011;61199;47.526;8.538;2023-02-10T15:18:36;19.93;;;12.90;;
73023;SDS011;61199;47.526;8.538;2023-02-10T15:21:23;24.07;;;14.40;;
73023;SDS011;61199;47.526;8.538;2023-02-10T15:23:54;26.60;;;13.63;;
73023;SDS011;61199;47.526;8.538;2023-02-10T15:26:25;29.93;;;13.83;;
73023;SDS011;61199;47.526;8.538;2023-02-10T15:29:00;21.80;;;12.90;;
73023;SDS011;61199;47.526;8.538;2023-02-10T15:31:34;22.87;;;14.10;;
73023;SDS011;61199;47.526;8.538;2023-02-10T15:34:02;25.47;;;14.10;;
73023;SDS011;61199;47.526;8.538;2023-02-10T15:36:46;27.10;;;13.77;;
73023;SDS011;61199;47.526;8.538;2023-02-10T15:39:57;24.10;;;13.57;;
73023;SDS011;61199;47.526;8.538;2023-02-10T15:44:41;28.87;;;12.53;;
73023;SDS011;61199;47.526;8.538;2023-02-10T15:47:17;20.40;;;11.70;;
73023;SDS011;61199;47.526;8.538;2023-02-10T15:49:46;18.63;;;10.40;;
73023;SDS011;61199;47.526;8.538;2023-02-10T15:52:38;20.60;;;11.33;;
73023;SDS011;61199;47.526;8.538;2023-02-10T15:55:15;20.87;;;11.47;;
73023;SDS011;61199;47.526;8.538;2023-02-10T15:57:44;21.23;;;11.90;;
73023;SDS011;61199;47.526;8.538;2023-02-10T16:00:13;25.53;;;12.07;;
73023;SDS011;61199;47.526;8.538;2023-02-10T16:02:43;31.67;;;15.17;;
73023;SDS011;61199;47.526;8.538;2023-02-10T16:05:10;36.63;;;15.87;;
73023;SDS011;61199;47.526;8.538;2023-02-10T16:07:36;30.13;;;13.60;;
73023;SDS011;61199;47.526;8.538;2023-02-10T16:10:02;30.03;;;14.23;;
73023;SDS011;61199;47.526;8.538;2023-02-10T16:12:29;27.07;;;13.57;;
73023;SDS011;61199;47.526;8.538;2023-02-10T16:14:55;27.63;;;13.97;;
73023;SDS011;61199;47.526;8.538;2023-02-10T16:17:25;27.40;;;13.50;;
73023;SDS011;61199;47.526;8.538;2023-02-10T16:19:54;37.40;;;14.40;;